Time;durP1;ratioP1;P1;durP2;ratioP2;P2;SDS_P1;SDS_P2;PMS_P1;PMS_P2;Temp;Humidity;BMP_temperature;BMP_pressure;BME280_temperature;BME280_humidity;BME280_pressure;Samples;Min_cycle;Max_cycle;Signal;HPM_P1;HPM_P2
2022/07/04 00:02:06;;;;;;;0.43;0.33;;;;;;;24.07;100.00;95491.44;5135769;27;20541;-62
2022/07/04 00:04:36;;;;;;;0.50;0.30;;;;;;;24.03;100.00;95494.03;5135788;27;20463;-62
2022/07/04 00:07:05;;;;;;;0.73;0.73;;;;;;;24.03;100.00;95494.03;5135237;27;20418;-62
2022/07/04 00:09:33;;;;;;;0.40;0.30;;;;;;;24.02;100.00;95487.06;5135797;27;20499;-62
2022/07/04 00:12:02;;;;;;;0.50;0.43;;;;;;;23.95;100.00;95486.91;5135542;27;20498;-62
2022/07/04 00:14:30;;;;;;;0.93;0.30;;;;;;;23.85;100.00;95487.44;5135166;27;21039;-62
2022/07/04 00:16:59;;;;;;;0.63;0.40;;;;;;;23.46;100.00;95484.84;5135621;27;20434;-63
2022/07/04 00:19:27;;;;;;;0.40;0.40;;;;;;;23.29;100.00;95472.38;5135940;27;20418;-63
2022/07/04 00:21:57;;;;;;;0.60;0.60;;;;;;;23.39;100.00;95463.81;5135172;27;20975;-63
2022/07/04 00:24:25;;;;;;;0.73;0.50;;;;;;;23.54;100.00;95481.97;5135395;27;20939;-63
2022/07/04 00:26:54;;;;;;;0.60;0.50;;;;;;;23.50;100.00;95481.09;5135669;27;20852;-63
2022/07/04 00:29:22;;;;;;;3.17;0.90;;;;;;;23.56;100.00;95484.31;5135344;27;20435;-63
2022/07/04 00:31:50;;;;;;;0.50;0.43;;;;;;;23.41;100.00;95482.38;5134976;27;20415;-63
2022/07/04 00:34:19;;;;;;;1.43;0.50;;;;;;;23.40;100.00;95470.00;5134898;27;20430;-63
2022/07/04 00:36:47;;;;;;;0.73;0.73;;;;;;;23.46;100.00;95480.22;5134984;27;20468;-63
2022/07/04 00:39:18;;;;;;;1.63;0.67;;;;;;;23.48;100.00;95480.66;5135145;27;20448;-63
2022/07/04 00:41:46;;;;;;;0.53;0.50;;;;;;;23.38;100.00;95464.91;5133970;27;20912;-63
2022/07/04 00:44:16;;;;;;;1.13;0.47;;;;;;;23.46;100.00;95477.50;5135219;27;20426;-63
2022/07/04 00:46:47;;;;;;;0.40;0.30;;;;;;;23.50;100.00;95474.91;5135047;27;20507;-64
2022/07/04 00:49:18;;;;;;;0.53;0.53;;;;;;;23.37;100.00;95455.25;5134741;27;20426;-63
2022/07/04 00:51:47;;;;;;;0.57;0.47;;;;;;;23.32;100.00;95472.50;5134038;27;20447;-63
2022/07/04 00:54:18;;;;;;;0.80;0.80;;;;;;;23.33;100.00;95473.25;5134800;27;20491;-63
2022/07/04 00:56:46;;;;;;;0.40;0.30;;;;;;;23.38;100.00;95476.53;5134325;27;20427;-64
2022/07/04 00:59:15;;;;;;;0.40;0.30;;;;;;;23.36;100.00;95475.31;5134595;27;20454;-64
2022/07/04 01:01:43;;;;;;;0.50;0.40;;;;;;;23.32;100.00;95480.59;5132616;27;20505;-63
2022/07/04 01:04:12;;;;;;;0.50;0.50;;;;;;;23.30;100.00;95482.09;5134620;27;20445;-63
2022/07/04 01:06:40;;;;;;;0.50;0.43;;;;;;;23.20;100.00;95486.06;5136074;27;20832;-63
2022/07/04 01:09:09;;;;;;;0.50;0.30;;;;;;;22.80;100.00;95484.50;5135077;27;20418;-63
2022/07/04 01:11:39;;;;;;;0.73;0.73;;;;;;;22.89;100.00;95485.16;5134386;27;20484;-64
2022/07/04 01:14:08;;;;;;;0.60;0.60;;;;;;;23.04;100.00;95485.25;5133875;27;20926;-63
2022/07/04 01:16:36;;;;;;;0.57;0.40;;;;;;;23.03;100.00;95477.44;5134260;27;21013;-64
2022/07/04 01:19:05;;;;;;;0.40;0.30;;;;;;;22.66;100.00;95480.28;5133618;27;20889;-63
2022/07/04 01:21:34;;;;;;;0.70;0.60;;;;;;;22.16;100.00;95481.78;5133355;27;20545;-64
2022/07/04 01:24:03;;;;;;;0.57;0.53;;;;;;;21.97;100.00;95483.13;5134561;27;20450;-66
2022/07/04 01:26:31;;;;;;;0.67;0.67;;;;;;;22.41;100.00;95473.31;5133689;27;20467;-64
2022/07/04 01:29:00;;;;;;;0.60;0.60;;;;;;;22.51;100.00;95467.47;5134148;27;20461;-64
2022/07/04 01:31:28;;;;;;;5.23;0.63;;;;;;;22.62;100.00;95467.78;5134343;27;20801;-64
2022/07/04 01:33:57;;;;;;;0.50;0.30;;;;;;;22.74;100.00;95482.03;5133340;27;20501;-64
2022/07/04 01:36:26;;;;;;;0.60;0.47;;;;;;;21.47;100.00;95283.03;5133978;27;20461;-63
2022/07/04 01:38:58;;;;;;;0.60;0.50;;;;;;;22.77;100.00;95473.25;5134193;27;20418;-64
2022/07/04 01:41:27;;;;;;;0.70;0.70;;;;;;;22.55;100.00;95479.13;5133507;27;20758;-64
2022/07/04 01:43:55;;;;;;;0.50;0.40;;;;;;;22.67;100.00;95472.94;5133761;27;20466;-64
2022/07/04 01:46:24;;;;;;;0.40;0.40;;;;;;;22.70;100.00;95480.38;5133602;27;20999;-64
2022/07/04 01:48:52;;;;;;;0.87;0.70;;;;;;;22.51;100.00;95453.16;5133277;27;20426;-63
2022/07/04 01:51:20;;;;;;;0.50;0.40;;;;;;;22.71;100.00;95485.47;5133603;27;20465;-63
2022/07/04 01:53:49;;;;;;;0.60;0.50;;;;;;;22.77;100.00;95485.22;5133657;27;20805;-63
2022/07/04 01:56:19;;;;;;;0.63;0.40;;;;;;;22.77;100.00;95487.91;5133860;27;20510;-64
2022/07/04 01:58:47;;;;;;;0.50;0.30;;;;;;;22.74;100.00;95482.03;5133342;27;20458;-63
2022/07/04 02:01:29;;;;;;;0.50;0.33;;;;;;;22.64;100.00;95477.13;5133468;27;20504;-64
2022/07/04 02:03:59;;;;;;;3.60;0.47;;;;;;;22.63;100.00;95477.47;5133398;27;20419;-63
2022/07/04 02:06:28;;;;;;;0.50;0.30;;;;;;;22.60;100.00;95488.91;5133303;27;20769;-64
2022/07/04 02:14:32;;;;;;;0.70;0.40;;;;;;;22.58;100.00;95488.47;5132794;27;20474;-63
2022/07/04 02:17:02;;;;;;;2.93;0.57;;;;;;;22.02;100.00;95449.72;5133290;27;20419;-63
2022/07/04 02:19:30;;;;;;;0.57;0.37;;;;;;;22.36;100.00;95483.56;5132868;27;20434;-64
2022/07/04 02:21:59;;;;;;;0.40;0.30;;;;;;;22.45;100.00;95484.22;5132561;27;20553;-63
2022/07/04 02:24:27;;;;;;;0.60;0.30;;;;;;;22.49;100.00;95491.28;5132895;27;20841;-64
2022/07/04 02:26:57;;;;;;;0.40;0.30;;;;;;;22.44;100.00;95491.53;5133083;27;20461;-63
2022/07/04 02:29:26;;;;;;;0.50;0.33;;;;;;;22.33;100.00;95485.03;5132925;27;20459;-63
2022/07/04 02:31:54;;;;;;;0.40;0.30;;;;;;;22.41;100.00;95494.16;5132563;27;20455;-63
2022/07/04 02:34:23;;;;;;;0.60;0.50;;;;;;;22.35;100.00;95501.69;5132935;27;20923;-63
2022/07/04 02:36:51;;;;;;;0.70;0.70;;;;;;;21.94;100.00;95504.59;5133313;27;20418;-63
2022/07/04 02:39:20;;;;;;;0.80;0.80;;;;;;;21.62;100.00;95494.63;5132325;27;20506;-62
2022/07/04 02:41:48;;;;;;;0.53;0.50;;;;;;;21.87;100.00;95491.66;5132977;27;20522;-63
2022/07/04 02:44:25;;;;;;;0.60;0.40;;;;;;;22.14;100.00;95493.69;5132959;27;20510;-64
2022/07/04 02:46:54;;;;;;;0.50;0.30;;;;;;;22.28;100.00;95492.56;5132682;27;20506;-63
2022/07/04 02:49:22;;;;;;;0.63;0.50;;;;;;;21.92;100.00;95487.97;5132735;27;20462;-63
2022/07/04 02:51:50;;;;;;;0.50;0.30;;;;;;;22.09;100.00;95493.94;5132024;28;20499;-63
2022/07/04 02:54:19;;;;;;;0.60;0.50;;;;;;;22.24;100.00;95492.44;5132641;28;20418;-63
2022/07/04 02:56:47;;;;;;;0.97;0.73;;;;;;;22.23;100.00;95485.50;5132650;28;20444;-62
2022/07/04 02:59:16;;;;;;;0.80;0.80;;;;;;;22.23;100.00;95493.59;5132553;28;20473;-62
2022/07/04 03:01:46;;;;;;;0.40;0.20;;;;;;;22.27;100.00;95493.69;5131992;28;20916;-62
2022/07/04 03:07:00;;;;;;;0.60;0.57;;;;;;;22.29;100.00;95496.84;5132070;28;20474;-62
2022/07/04 03:09:29;;;;;;;0.73;0.60;;;;;;;22.32;100.00;95490.75;5131530;28;20418;-62
2022/07/04 03:11:57;;;;;;;0.50;0.40;;;;;;;21.77;100.00;95497.47;5132260;28;20794;-61
2022/07/04 03:14:27;;;;;;;0.40;0.20;;;;;;;21.49;100.00;95407.53;5132251;28;20521;-61
2022/07/04 03:16:59;;;;;;;1.53;0.63;;;;;;;22.03;100.00;95487.19;5132507;28;20439;-61
2022/07/04 03:19:27;;;;;;;0.47;0.40;;;;;;;21.99;100.00;95493.56;5132007;28;20951;-61
2022/07/04 03:21:58;;;;;;;0.40;0.30;;;;;;;22.05;100.00;95503.84;5134038;28;20465;-61
2022/07/04 03:24:27;;;;;;;0.70;0.70;;;;;;;22.22;100.00;95496.63;5134309;27;20546;-60
2022/07/04 03:26:56;;;;;;;0.63;0.63;;;;;;;22.16;100.00;95508.78;5136324;27;20822;-61
2022/07/04 03:29:25;;;;;;;0.70;0.47;;;;;;;22.20;100.00;95506.97;5136606;27;20438;-61
2022/07/04 03:31:54;;;;;;;0.60;0.50;;;;;;;22.28;100.00;95512.28;5136750;27;20850;-61
2022/07/04 03:34:24;;;;;;;0.50;0.40;;;;;;;22.27;100.00;95504.50;5136269;27;20860;-61
2022/07/04 03:36:52;;;;;;;0.80;0.73;;;;;;;22.14;100.00;95517.19;5136223;27;20434;-62
2022/07/04 03:39:21;;;;;;;0.60;0.50;;;;;;;22.12;100.00;95524.84;5136292;27;20415;-62
2022/07/04 03:41:50;;;;;;;0.60;0.60;;;;;;;22.24;100.00;95519.44;5136158;27;20463;-62
2022/07/04 03:44:18;;;;;;;0.50;0.40;;;;;;;22.32;100.00;95518.56;5136074;27;20557;-62
2022/07/04 03:46:46;;;;;;;0.60;0.60;;;;;;;21.84;100.00;95513.09;5136003;27;20481;-62
2022/07/04 03:49:15;;;;;;;0.63;0.40;;;;;;;21.66;100.00;95523.31;5136048;27;20509;-62
2022/07/04 03:51:45;;;;;;;0.50;0.33;;;;;;;21.80;100.00;95518.41;5135912;27;21000;-62
2022/07/04 03:54:13;;;;;;;0.60;0.60;;;;;;;21.81;100.00;95519.94;5135991;27;20430;-62
2022/07/04 03:56:45;;;;;;;3.40;0.67;;;;;;;21.49;100.00;95512.69;5135915;27;20431;-62
2022/07/04 03:59:14;;;;;;;2.50;0.60;;;;;;;21.48;100.00;95517.31;5135925;27;20422;-62
2022/07/04 04:01:42;;;;;;;1.30;1.20;;;;;;;21.59;100.00;95516.88;5135997;27;20426;-62
2022/07/04 04:06:58;;;;;;;1.53;1.43;;;;;;;20.71;100.00;95536.03;5135443;27;20529;-62
2022/07/04 04:09:27;;;;;;;1.50;1.50;;;;;;;20.56;100.00;95539.28;5135894;27;20454;-62
2022/07/04 04:11:55;;;;;;;0.47;0.40;;;;;;;20.58;100.00;95532.47;5135734;27;20447;-62
2022/07/04 04:14:24;;;;;;;0.90;0.90;;;;;;;21.05;100.00;95527.66;5135596;27;20474;-62
2022/07/04 04:16:53;;;;;;;0.83;0.83;;;;;;;21.60;100.00;95523.84;5135564;27;20426;-62
2022/07/04 04:19:21;;;;;;;0.93;0.93;;;;;;;22.02;100.00;95520.69;5135529;27;20422;-62
2022/07/04 04:21:49;;;;;;;0.50;0.47;;;;;;;21.71;100.00;95527.69;5135521;27;20460;-61
2022/07/04 04:24:19;;;;;;;2.73;0.73;;;;;;;21.58;100.00;95526.88;5135699;27;20902;-62
2022/07/04 04:26:47;;;;;;;1.10;1.10;;;;;;;21.35;100.00;95436.72;5135369;27;20427;-62
2022/07/04 04:29:16;;;;;;;3.77;2.50;;;;;;;21.11;100.00;95534.47;5135637;27;20465;-68
2022/07/04 04:31:44;;;;;;;3.60;0.77;;;;;;;21.04;100.00;95533.41;5135594;27;20505;-66
2022/07/04 04:34:13;;;;;;;0.97;0.77;;;;;;;21.32;100.00;95524.47;5135589;27;20542;-68
2022/07/04 04:36:41;;;;;;;0.90;0.70;;;;;;;21.50;100.00;95531.22;5135254;27;20475;-65
2022/07/04 04:39:10;;;;;;;0.60;0.57;;;;;;;21.82;100.00;95529.63;5135093;27;20462;-63
2022/07/04 04:41:39;;;;;;;0.93;0.57;;;;;;;21.97;100.00;95528.22;5135194;27;21008;-63
2022/07/04 04:44:08;;;;;;;0.50;0.40;;;;;;;21.99;100.00;95537.56;5135271;27;20553;-63
2022/07/04 04:46:36;;;;;;;1.10;1.00;;;;;;;22.48;100.00;95530.25;5135081;27;20968;-61
2022/07/04 04:49:05;;;;;;;0.97;0.97;;;;;;;22.40;100.00;95528.47;5134807;27;20434;-62
2022/07/04 04:51:33;;;;;;;8.50;0.50;;;;;;;22.31;100.00;95533.19;5135114;27;20459;-61
2022/07/04 04:54:02;;;;;;;0.90;0.43;;;;;;;22.23;100.00;95530.59;5134702;27;20422;-61
2022/07/04 04:56:30;;;;;;;0.70;0.70;;;;;;;22.50;100.00;95533.41;5134845;27;20830;-61
2022/07/04 04:59:00;;;;;;;0.50;0.43;;;;;;;22.62;100.00;95527.22;5134163;27;20446;-61
2022/07/04 05:01:29;;;;;;;0.57;0.57;;;;;;;22.59;100.00;95525.19;5134760;27;20498;-60
2022/07/04 05:04:14;;;;;;;0.70;0.70;;;;;;;22.96;100.00;95529.41;5134400;27;20458;-60
2022/07/04 05:06:43;;;;;;;0.70;0.50;;;;;;;22.87;100.00;95522.56;5134634;27;20832;-59
2022/07/04 05:09:11;;;;;;;0.60;0.50;;;;;;;23.33;100.00;95522.72;5134560;27;20855;-59
2022/07/04 05:11:40;;;;;;;0.60;0.60;;;;;;;23.53;100.00;95523.69;5134573;27;20989;-61
2022/07/04 05:14:10;;;;;;;0.57;0.57;;;;;;;23.69;100.00;95516.38;5134350;27;20483;-59
2022/07/04 05:16:38;;;;;;;0.40;0.30;;;;;;;23.65;100.00;95520.94;5134216;27;20471;-59
2022/07/04 05:19:07;;;;;;;1.30;0.50;;;;;;;23.94;100.00;95523.22;5134610;27;20842;-58
2022/07/04 05:21:35;;;;;;;0.50;0.40;;;;;;;24.07;100.00;95518.50;5134184;27;20458;-58
2022/07/04 05:24:04;;;;;;;0.50;0.40;;;;;;;24.37;100.00;95518.84;5134074;27;20553;-58
2022/07/04 05:26:32;;;;;;;0.73;0.70;;;;;;;24.29;100.00;95515.19;5133850;27;20435;-58
2022/07/04 05:29:01;;;;;;;1.57;0.50;;;;;;;24.44;100.00;95514.38;5134322;27;20433;-58
2022/07/04 05:31:31;;;;;;;0.53;0.37;;;;;;;24.62;100.00;95517.50;5134303;27;20835;-57
2022/07/04 05:34:00;;;;;;;0.73;0.73;;;;;;;24.85;100.00;95507.59;5133835;27;20887;-57
2022/07/04 05:36:28;;;;;;;0.50;0.40;;;;;;;24.91;100.00;95510.81;5133971;27;20418;-57
2022/07/04 05:38:58;;;;;;;0.60;0.60;;;;;;;24.91;100.00;95511.59;5134279;27;20498;-57
2022/07/04 05:41:26;;;;;;;0.50;0.43;;;;;;;24.94;100.00;95510.09;5134014;27;20419;-57
2022/07/04 05:43:55;;;;;;;0.60;0.40;;;;;;;25.30;100.00;95511.63;5133743;27;20483;-56
2022/07/04 05:46:26;;;;;;;1.67;0.30;;;;;;;25.53;100.00;95507.81;5133163;27;20435;-57
2022/07/04 05:48:56;;;;;;;0.97;0.97;;;;;;;24.65;100.00;95508.66;5133688;27;20937;-57
2022/07/04 05:51:25;;;;;;;1.00;0.77;;;;;;;24.77;100.00;95513.97;5132970;27;20509;-57
2022/07/04 05:53:54;;;;;;;0.60;0.60;;;;;;;24.22;100.00;95487.16;5133737;27;20431;-57
2022/07/04 05:56:23;;;;;;;1.50;1.40;;;;;;;24.18;100.00;95505.25;5133571;27;20499;-57
2022/07/04 05:58:52;;;;;;;3.50;0.80;;;;;;;24.66;100.00;95499.41;5133512;27;20435;-57
2022/07/04 06:01:21;;;;;;;1.50;1.40;;;;;;;25.29;100.00;95505.41;5133421;27;20942;-57
2022/07/04 06:03:50;;;;;;;0.87;0.87;;;;;;;24.95;100.00;95498.91;5133448;27;20476;-56
2022/07/04 06:06:20;;;;;;;1.03;0.90;;;;;;;25.14;100.00;95498.13;5133517;27;20465;-57
2022/07/04 06:08:48;;;;;;;1.83;1.73;;;;;;;24.83;100.00;95504.47;5133414;27;20474;-57
2022/07/04 06:11:17;;;;;;;1.90;1.80;;;;;;;24.93;100.00;95487.63;5133466;27;20423;-57
2022/07/04 06:13:46;;;;;;;1.13;1.03;;;;;;;25.45;100.00;95497.19;5133137;27;20897;-57
2022/07/04 06:16:15;;;;;;;1.00;1.00;;;;;;;25.46;100.00;95494.13;5133061;27;20889;-57
2022/07/04 06:18:43;;;;;;;1.47;1.37;;;;;;;25.44;100.00;95498.31;5133355;27;20900;-57
2022/07/04 06:21:11;;;;;;;1.17;1.07;;;;;;;25.45;100.00;95495.25;5133335;27;20513;-57
2022/07/04 06:23:41;;;;;;;1.30;1.10;;;;;;;25.69;100.00;95486.81;5133120;27;21138;-58
2022/07/04 06:26:10;;;;;;;1.73;0.80;;;;;;;25.78;100.00;95478.41;5133403;27;20502;-58
2022/07/04 06:28:38;;;;;;;1.40;1.30;;;;;;;25.85;100.00;95479.34;5133007;27;20439;-57
2022/07/04 06:31:15;;;;;;;0.73;0.73;;;;;;;26.63;100.00;95466.19;5133121;27;20945;-57
2022/07/04 06:36:30;;;;;;;2.17;1.80;;;;;;;26.27;100.00;95468.38;5133006;27;20430;-58
2022/07/04 06:39:00;;;;;;;1.20;1.03;;;;;;;26.28;100.00;95459.09;5132753;27;20928;-58
2022/07/04 06:41:28;;;;;;;0.80;0.70;;;;;;;26.76;100.00;95456.66;5132914;27;20479;-58
2022/07/04 06:43:57;;;;;;;0.50;0.50;;;;;;;27.36;100.00;95450.00;5132915;27;20434;-57
2022/07/04 06:46:25;;;;;;;1.57;1.47;;;;;;;27.12;100.00;95455.97;5132670;27;20869;-57
2022/07/04 06:48:54;;;;;;;0.50;0.47;;;;;;;27.94;100.00;95449.41;5132720;27;20503;-58
2022/07/04 06:51:22;;;;;;;0.63;0.50;;;;;;;27.55;100.00;95457.25;5132711;27;20519;-58
2022/07/04 06:53:51;;;;;;;0.93;0.93;;;;;;;27.95;98.26;95451.00;5132606;28;20450;-58
2022/07/04 06:56:21;;;;;;;2.50;0.67;;;;;;;28.38;94.02;95450.19;5132562;28;20426;-58
2022/07/04 06:58:49;;;;;;;0.70;0.70;;;;;;;29.14;95.62;95442.81;5132897;27;20466;-57
2022/07/04 07:01:18;;;;;;;1.17;0.77;;;;;;;28.79;91.02;95439.94;5137027;27;20438;-57
2022/07/04 07:03:46;;;;;;;0.50;0.50;;;;;;;28.94;93.35;95431.41;5136943;27;20873;-57
2022/07/04 07:06:15;;;;;;;0.70;0.60;;;;;;;28.60;91.39;95430.06;5137098;27;20822;-58
2022/07/04 07:08:43;;;;;;;1.90;0.83;;;;;;;29.14;89.93;95429.16;5136691;27;20943;-58
2022/07/04 07:11:17;;;;;;;0.93;0.93;;;;;;;29.99;83.32;95419.22;5137026;27;20426;-59
2022/07/04 07:13:49;;;;;;;2.27;0.70;;;;;;;30.14;76.60;95415.31;5136399;27;20466;-59
2022/07/04 07:16:18;;;;;;;0.60;0.53;;;;;;;30.18;76.68;95416.06;5136495;27;20458;-59
2022/07/04 07:18:49;;;;;;;0.70;0.70;;;;;;;29.81;80.03;95412.97;5136305;27;20438;-59
2022/07/04 07:21:17;;;;;;;0.63;0.63;;;;;;;30.49;79.74;95400.81;5136638;27;20453;-60
2022/07/04 07:23:46;;;;;;;2.10;1.23;;;;;;;30.32;76.64;95406.28;5136246;27;20978;-61
2022/07/04 07:26:14;;;;;;;1.07;1.03;;;;;;;30.19;76.22;95403.97;5136408;27;20867;-61
2022/07/04 07:28:43;;;;;;;0.60;0.60;;;;;;;30.80;76.92;95396.41;5136866;27;20446;-62
2022/07/04 07:31:13;;;;;;;0.67;0.67;;;;;;;30.76;70.89;95388.22;5136242;27;20517;-62
2022/07/04 07:33:41;;;;;;;1.20;0.73;;;;;;;30.62;77.09;95385.53;5136599;27;20509;-62
2022/07/04 07:36:09;;;;;;;1.53;0.80;;;;;;;29.91;79.25;95395.00;5135662;27;20526;-62
2022/07/04 07:38:38;;;;;;;1.10;0.80;;;;;;;30.60;78.02;95384.38;5136345;27;20418;-61
2022/07/04 07:41:09;;;;;;;2.63;2.53;;;;;;;30.50;76.33;95382.44;5136077;27;20513;-61
2022/07/04 07:43:38;;;;;;;1.67;1.00;;;;;;;31.07;72.86;95361.16;5136524;27;20448;-61
2022/07/04 07:46:07;;;;;;;0.70;0.70;;;;;;;31.78;69.35;95377.91;5135829;27;20557;-60
2022/07/04 07:48:37;;;;;;;1.67;1.57;;;;;;;31.07;71.54;95372.84;5136022;27;20438;-60
2022/07/04 07:51:05;;;;;;;0.97;0.57;;;;;;;30.90;74.88;95362.78;5135905;27;20442;-60
2022/07/04 07:53:33;;;;;;;1.67;0.60;;;;;;;31.47;71.29;95360.53;5135515;27;20945;-60
2022/07/04 07:56:22;;;;;;;1.40;0.67;;;;;;;31.77;67.16;95360.69;5136667;27;20442;-59
2022/07/04 07:58:51;;;;;;;0.60;0.57;;;;;;;32.41;67.97;95362.88;5135952;27;20482;-59
2022/07/04 08:01:20;;;;;;;1.20;1.20;;;;;;;32.14;68.39;95357.25;5136235;27;20420;-59
2022/07/04 08:06:40;;;;;;;1.37;1.13;;;;;;;31.40;66.58;95347.63;5135944;27;20532;-59
2022/07/04 08:09:29;;;;;;;1.53;1.43;;;;;;;31.88;69.86;95352.38;5135189;27;20453;-59
2022/07/04 08:11:57;;;;;;;0.87;0.83;;;;;;;32.19;61.25;95356.03;5135692;27;20519;-59
2022/07/04 08:14:26;;;;;;;1.10;0.90;;;;;;;31.76;58.93;95347.38;5135678;27;20556;-59
2022/07/04 08:16:54;;;;;;;0.70;0.53;;;;;;;32.74;52.71;95350.38;5135848;27;20458;-58
2022/07/04 08:19:25;;;;;;;0.40;0.37;;;;;;;33.31;40.48;95351.22;5135734;27;20426;-58
2022/07/04 08:21:54;;;;;;;0.73;0.73;;;;;;;33.39;41.78;95357.38;5135451;27;20430;-56
2022/07/04 08:24:43;;;;;;;0.50;0.50;;;;;;;33.44;39.00;95343.94;5135397;27;20936;-57
2022/07/04 08:27:11;;;;;;;0.40;0.30;;;;;;;33.79;38.69;95335.16;5135298;27;20894;-57
2022/07/04 08:29:40;;;;;;;1.00;0.70;;;;;;;33.57;35.63;95342.22;5135280;27;20431;-57
2022/07/04 08:32:09;;;;;;;0.63;0.63;;;;;;;34.09;38.43;95344.50;5135258;27;20456;-57
2022/07/04 08:34:39;;;;;;;0.43;0.43;;;;;;;34.33;33.33;95338.56;5135277;27;20423;-57
2022/07/04 08:37:08;;;;;;;0.73;0.50;;;;;;;34.40;36.22;95346.69;5134453;27;20512;-57
2022/07/04 08:39:36;;;;;;;0.50;0.40;;;;;;;34.25;34.15;95342.66;5135016;27;20480;-57
2022/07/04 08:42:10;;;;;;;0.80;0.80;;;;;;;34.90;35.35;95334.72;5135519;27;20469;-57
2022/07/04 08:44:41;;;;;;;0.40;0.40;;;;;;;35.02;36.55;95334.06;5134716;27;20479;-57
2022/07/04 08:47:11;;;;;;;0.60;0.53;;;;;;;34.72;36.05;95332.31;5134818;27;20472;-57
2022/07/04 08:49:53;;;;;;;2.83;0.30;;;;;;;34.94;35.66;95336.19;5135111;27;20433;-57
2022/07/04 08:52:32;;;;;;;0.53;0.40;;;;;;;34.93;33.01;95326.38;5135144;27;20483;-57
2022/07/04 09:00:37;;;;;;;0.70;0.60;;;;;;;34.44;32.33;95321.84;5134314;27;20279;-57
2022/07/04 09:03:06;;;;;;;0.50;0.40;;;;;;;34.87;33.23;95310.78;5135065;27;20450;-57
2022/07/04 09:05:36;;;;;;;0.40;0.30;;;;;;;34.85;33.03;95319.47;5134488;27;20675;-56
2022/07/04 09:08:05;;;;;;;21.67;0.93;;;;;;;34.44;29.25;95308.88;5134436;27;20435;-57
2022/07/04 09:10:34;;;;;;;0.73;0.50;;;;;;;35.10;32.93;95313.44;5134495;27;21061;-56
2022/07/04 09:13:04;;;;;;;0.50;0.50;;;;;;;35.07;29.62;95293.03;5134454;27;20271;-56
2022/07/04 09:15:42;;;;;;;0.40;0.33;;;;;;;35.01;31.71;95316.78;5134336;27;20310;-56
2022/07/04 09:18:21;;;;;;;0.53;0.40;;;;;;;34.82;33.10;95306.53;5134214;27;20191;-57
2022/07/04 09:20:52;;;;;;;0.67;0.67;;;;;;;35.25;31.70;95300.91;5134365;27;20267;-57
2022/07/04 09:23:23;;;;;;;0.60;0.40;;;;;;;35.47;28.73;95292.94;5134128;27;20272;-56
2022/07/04 09:26:10;;;;;;;0.50;0.40;;;;;;;35.78;28.17;95296.88;5134412;27;20618;-57
2022/07/04 09:28:40;;;;;;;0.40;0.30;;;;;;;35.40;27.84;95282.03;5134098;27;20274;-55
2022/07/04 09:31:15;;;;;;;0.47;0.40;;;;;;;35.54;29.50;95293.56;5134318;27;20783;-56
2022/07/04 09:33:51;;;;;;;0.50;0.50;;;;;;;35.60;30.56;95296.56;5134301;27;20248;-58
2022/07/04 09:36:22;;;;;;;0.40;0.40;;;;;;;35.38;27.43;95289.97;5132887;27;20184;-56
2022/07/04 09:39:14;;;;;;;0.40;0.30;;;;;;;35.71;26.70;95297.06;5134112;27;20609;-56
2022/07/04 09:41:54;;;;;;;0.37;0.33;;;;;;;36.01;28.10;95293.19;5133890;27;20219;-55
2022/07/04 09:44:23;;;;;;;0.40;0.40;;;;;;;36.17;29.83;95288.44;5133987;27;20184;-56
2022/07/04 09:46:52;;;;;;;0.40;0.30;;;;;;;36.75;28.22;95280.13;5132853;27;20307;-56
2022/07/04 09:49:21;;;;;;;0.50;0.47;;;;;;;35.43;28.32;95272.91;5133904;27;20267;-57
2022/07/04 09:51:53;;;;;;;0.80;0.60;;;;;;;34.99;34.69;95275.06;5133444;27;20312;-57
2022/07/04 09:54:29;;;;;;;0.53;0.40;;;;;;;35.19;35.78;95277.03;5133663;27;20216;-57
2022/07/04 09:56:59;;;;;;;0.40;0.40;;;;;;;35.61;37.20;95270.53;5133472;27;20278;-56
2022/07/04 09:59:29;;;;;;;0.40;0.40;;;;;;;36.45;34.48;95272.28;5132484;27;20231;-57
2022/07/04 10:02:09;;;;;;;2.50;0.70;;;;;;;35.79;34.04;95270.88;5133227;27;20223;-57
2022/07/04 10:04:47;;;;;;;1.10;0.60;;;;;;;35.47;35.63;95260.59;5133402;27;20245;-58
2022/07/04 10:07:37;;;;;;;0.40;0.33;;;;;;;35.63;36.07;95274.41;5133243;27;20268;-57
2022/07/04 10:10:32;;;;;;;0.70;0.70;;;;;;;35.45;35.39;95271.28;5133256;27;20274;-58
2022/07/04 10:13:03;;;;;;;0.50;0.50;;;;;;;36.11;33.73;95264.53;5132836;27;20181;-56
2022/07/04 10:15:33;;;;;;;0.40;0.40;;;;;;;35.84;34.55;95201.38;5131677;27;20292;-57
2022/07/04 10:18:01;;;;;;;0.50;0.47;;;;;;;36.69;33.18;95257.78;5133129;27;20669;-56
2022/07/04 10:20:30;;;;;;;1.60;1.33;;;;;;;36.54;32.73;95264.16;5133050;27;20275;-57
2022/07/04 10:23:01;;;;;;;0.50;0.40;;;;;;;35.77;32.76;95269.75;5132963;27;20180;-57
2022/07/04 10:25:30;;;;;;;0.50;0.40;;;;;;;35.85;32.49;95263.59;5132955;27;20181;-68
2022/07/04 10:27:59;;;;;;;0.70;0.70;;;;;;;36.05;33.41;95274.56;5132794;27;20273;-57
2022/07/04 10:30:33;;;;;;;0.47;0.37;;;;;;;35.88;30.95;95265.50;5133051;27;20272;-57
2022/07/04 10:33:09;;;;;;;0.40;0.30;;;;;;;36.40;29.92;95270.84;5132781;27;20188;-56
2022/07/04 10:35:53;;;;;;;3.03;0.60;;;;;;;36.57;30.31;95260.53;5133051;27;20233;-56
2022/07/04 10:38:24;;;;;;;0.60;0.40;;;;;;;36.95;32.67;95272.44;5133009;27;20215;-56
2022/07/04 10:40:54;;;;;;;1.60;0.80;;;;;;;36.48;29.78;95271.44;5132832;27;20275;-56
2022/07/04 10:43:52;;;;;;;0.30;0.30;;;;;;;37.04;29.15;95252.47;5132964;27;20184;-56
2022/07/04 10:46:31;;;;;;;0.32;0.30;;;;;;;37.88;28.68;95260.78;5132710;27;20294;-55
2022/07/04 10:49:01;;;;;;;0.30;0.20;;;;;;;38.23;26.08;95253.25;5132657;27;20283;-56
2022/07/04 10:51:41;;;;;;;6.75;1.02;;;;;;;37.94;26.58;95242.41;5132672;27;20227;-56
2022/07/04 10:54:16;;;;;;;0.65;0.65;;;;;;;37.98;26.12;95262.44;5132778;27;20219;-57
2022/07/04 10:56:50;;;;;;;0.50;0.50;;;;;;;37.36;26.75;95258.53;5132868;28;20284;-55
2022/07/04 10:59:21;;;;;;;0.77;0.68;;;;;;;37.07;26.38;95246.81;5132351;28;20279;-55
2022/07/04 11:02:09;;;;;;;0.60;0.60;;;;;;;36.76;26.46;95245.78;5132532;28;20628;-56
2022/07/04 11:05:06;;;;;;;0.50;0.50;;;;;;;37.04;27.22;95244.91;5124196;28;20196;-56
2022/07/04 11:07:58;;;;;;;0.43;0.30;;;;;;;38.00;25.76;95237.09;5132221;28;20214;-55
2022/07/04 11:10:33;;;;;;;0.40;0.40;;;;;;;37.30;26.16;95240.94;5132459;28;20650;-56
2022/07/04 11:13:18;;;;;;;0.40;0.40;;;;;;;36.99;25.09;95241.94;5132107;28;20270;-56
2022/07/04 11:16:08;;;;;;;0.30;0.30;;;;;;;37.68;25.43;95238.13;5132159;28;20275;-55
2022/07/04 11:18:41;;;;;;;0.40;0.30;;;;;;;38.14;24.86;95231.81;5128532;28;20203;-55
2022/07/04 11:21:24;;;;;;;0.40;0.38;;;;;;;38.23;23.73;95231.09;5132651;28;20275;-56
2022/07/04 11:23:54;;;;;;;0.45;0.40;;;;;;;37.14;22.32;95169.19;5132033;28;20199;-56
2022/07/04 11:26:25;;;;;;;0.30;0.22;;;;;;;38.37;22.70;95227.06;5131985;28;20271;-56
2022/07/04 11:28:53;;;;;;;0.40;0.40;;;;;;;39.14;22.21;95215.81;5132181;28;20626;-55
2022/07/04 11:31:35;;;;;;;0.30;0.30;;;;;;;39.21;24.53;95217.56;5132082;28;20189;-56
2022/07/04 11:34:03;;;;;;;0.47;0.47;;;;;;;38.48;23.08;95219.16;5132174;28;20706;-56
2022/07/04 11:36:32;;;;;;;0.35;0.30;;;;;;;39.47;23.43;95212.56;5132437;28;20235;-56
2022/07/04 11:39:02;;;;;;;0.30;0.30;;;;;;;40.07;21.80;95187.81;5132046;28;20711;-56
2022/07/04 11:47:09;;;;;;;0.47;0.47;;;;;;;39.00;23.05;95210.81;5135805;27;20244;-56
2022/07/04 11:49:43;;;;;;;0.40;0.40;;;;;;;38.38;22.98;95200.94;5136059;27;20654;-56
2022/07/04 11:52:12;;;;;;;0.30;0.30;;;;;;;39.67;23.08;95210.16;5135697;27;20279;-56
2022/07/04 11:54:41;;;;;;;0.47;0.47;;;;;;;38.19;23.10;95200.00;5136029;27;20184;-56
2022/07/04 11:57:25;;;;;;;0.40;0.30;;;;;;;37.82;22.41;95201.69;5135812;27;20180;-57
2022/07/04 11:59:55;;;;;;;0.30;0.30;;;;;;;38.57;23.35;95200.59;5135601;27;20212;-55
2022/07/04 12:02:24;;;;;;;0.50;0.40;;;;;;;38.52;22.80;95203.94;5135653;27;20181;-55
2022/07/04 12:04:53;;;;;;;0.40;0.40;;;;;;;38.30;23.45;95194.13;5135113;27;20196;-55
2022/07/04 12:07:24;;;;;;;0.55;0.40;;;;;;;39.33;23.08;95195.25;5135291;27;20765;-55
2022/07/04 12:09:54;;;;;;;0.57;0.30;;;;;;;39.78;21.62;95191.81;5135453;27;20350;-56
2022/07/04 12:12:24;;;;;;;0.50;0.40;;;;;;;39.36;21.79;95199.13;5135670;27;20577;-56
2022/07/04 12:15:03;;;;;;;0.35;0.32;;;;;;;38.18;23.49;95143.09;5135047;27;20263;-55